createdAt,value
2018-06-22T00:02:08.141Z,84.34
2018-06-22T00:04:37.532Z,84.74
2018-06-22T00:07:06.956Z,84.70
2018-06-22T00:09:36.483Z,84.45
2018-06-22T00:12:06.125Z,84.34
2018-06-22T00:14:35.481Z,84.28
2018-06-22T00:17:04.928Z,84.30
2018-06-22T00:19:34.239Z,84.32
2018-06-22T00:22:03.596Z,84.60
2018-06-22T00:24:33.529Z,84.48
2018-06-22T00:27:02.845Z,84.39
2018-06-22T00:29:33.254Z,84.62
2018-06-22T00:32:02.861Z,84.59
2018-06-22T00:34:32.165Z,84.40
2018-06-22T00:37:01.377Z,84.28
2018-06-22T00:39:30.662Z,84.02
2018-06-22T00:41:59.862Z,84.82
2018-06-22T00:44:29.069Z,84.85
2018-06-22T00:46:58.279Z,84.86
2018-06-22T00:49:31.566Z,83.89
2018-06-22T00:52:01.358Z,84.46
2018-06-22T00:54:30.759Z,83.99
2018-06-22T00:57:00.008Z,84.26
2018-06-22T00:59:29.280Z,84.24
2018-06-22T01:01:59.528Z,84.32
2018-06-22T01:04:28.837Z,84.71
2018-06-22T01:06:58.079Z,84.58
2018-06-22T01:09:27.325Z,84.80
2018-06-22T01:11:56.516Z,84.74
2018-06-22T01:14:25.870Z,84.19
2018-06-22T01:16:55.280Z,84.53
2018-06-22T01:19:24.517Z,84.68
2018-06-22T01:21:53.825Z,84.42
2018-06-22T01:24:23.117Z,84.51
2018-06-22T01:26:52.379Z,84.42
2018-06-22T01:29:27.035Z,84.72
2018-06-22T01:31:56.237Z,84.54
2018-06-22T01:34:25.499Z,84.41
2018-06-22T01:36:54.837Z,84.32
2018-06-22T01:39:24.141Z,84.60
2018-06-22T01:41:53.413Z,84.03
2018-06-22T01:44:22.816Z,83.93
2018-06-22T01:46:52.126Z,83.58
2018-06-22T01:49:21.415Z,84.35
2018-06-22T01:51:50.774Z,83.88
2018-06-22T01:54:20.016Z,84.49
2018-06-22T01:56:49.232Z,84.32
2018-06-22T01:59:18.546Z,84.23
2018-06-22T02:01:47.873Z,83.92
2018-06-22T02:04:17.249Z,84.71
2018-06-22T02:06:46.625Z,85.43
2018-06-22T02:09:16.169Z,84.26
2018-06-22T02:11:46.197Z,84.66
2018-06-22T02:14:15.435Z,85.00
2018-06-22T02:16:44.654Z,84.28
2018-06-22T02:19:13.941Z,84.58
2018-06-22T02:21:43.367Z,84.72
2018-06-22T02:24:12.751Z,84.91
2018-06-22T02:26:42.218Z,84.75
2018-06-22T02:29:11.671Z,84.92
2018-06-22T02:31:41.621Z,85.24
2018-06-22T02:34:11.036Z,85.49
2018-06-22T02:36:40.733Z,85.68
2018-06-22T02:39:11.900Z,85.84
2018-06-22T02:41:41.798Z,85.40
2018-06-22T02:44:11.471Z,85.97
2018-06-22T02:46:41.015Z,85.14
2018-06-22T02:49:10.731Z,85.76
2018-06-22T02:51:40.209Z,84.60
2018-06-22T02:54:09.743Z,84.98
2018-06-22T02:56:39.215Z,85.69
2018-06-22T02:59:08.581Z,85.52
2018-06-22T03:01:37.944Z,85.40
2018-06-22T03:04:07.564Z,85.24
2018-06-22T03:06:37.000Z,85.08
2018-06-22T03:09:07.968Z,85.24
2018-06-22T03:11:37.507Z,85.18
2018-06-22T03:14:06.984Z,85.06
2018-06-22T03:16:36.823Z,85.41
2018-06-22T03:19:06.393Z,85.02
2018-06-22T03:21:35.941Z,84.86
2018-06-22T03:24:05.607Z,84.55
2018-06-22T03:26:35.051Z,84.21
2018-06-22T03:29:04.393Z,84.67
2018-06-22T03:31:34.332Z,84.44
2018-06-22T03:34:03.634Z,84.83
2018-06-22T03:36:34.130Z,84.60
2018-06-22T03:39:03.773Z,84.00
2018-06-22T03:41:33.102Z,84.56
2018-06-22T03:44:02.459Z,84.55
2018-06-22T03:46:31.787Z,84.59
2018-06-22T03:49:01.054Z,84.59
2018-06-22T03:51:30.345Z,84.29
2018-06-22T03:53:59.678Z,84.65
2018-06-22T03:56:28.993Z,84.31
2018-06-22T03:58:58.196Z,84.67
2018-06-22T04:01:28.079Z,84.82
2018-06-22T04:03:57.430Z,84.86
2018-06-22T04:06:26.710Z,84.55
2018-06-22T04:08:56.311Z,83.96
2018-06-22T04:11:25.680Z,83.50
2018-06-22T04:13:54.958Z,82.98
2018-06-22T04:16:24.332Z,83.02
2018-06-22T04:18:54.708Z,82.57
2018-06-22T04:21:24.073Z,82.63
2018-06-22T04:23:53.519Z,81.72
2018-06-22T04:26:23.043Z,81.43
2018-06-22T04:28:52.277Z,80.30
2018-06-22T04:31:21.941Z,80.96
2018-06-22T04:33:51.328Z,79.56
2018-06-22T04:36:20.692Z,79.32
2018-06-22T04:38:50.149Z,79.68
2018-06-22T04:41:19.505Z,79.40
2018-06-22T04:43:48.857Z,79.41
2018-06-22T04:46:18.568Z,79.34
2018-06-22T04:48:48.079Z,79.64
2018-06-22T04:51:17.518Z,79.34
2018-06-22T04:53:46.885Z,79.38
2018-06-22T04:56:16.212Z,78.99
2018-06-22T04:58:45.446Z,79.07
2018-06-22T05:01:14.956Z,77.99
2018-06-22T05:03:44.326Z,78.22
2018-06-22T05:06:13.625Z,77.44
2018-06-22T05:08:43.017Z,77.50
2018-06-22T05:11:12.570Z,78.31
2018-06-22T05:13:41.890Z,77.43
2018-06-22T05:16:11.313Z,77.29
2018-06-22T05:18:40.997Z,76.87
2018-06-22T05:21:10.413Z,77.11
2018-06-22T05:23:40.135Z,77.91
2018-06-22T05:26:09.742Z,77.92
2018-06-22T05:28:39.208Z,78.06
2018-06-22T05:31:08.628Z,78.12
2018-06-22T05:33:38.007Z,77.50
2018-06-22T05:36:07.336Z,77.29
2018-06-22T05:38:37.354Z,76.90
2018-06-22T05:41:06.959Z,76.98
2018-06-22T05:43:36.356Z,76.96
2018-06-22T05:46:06.269Z,76.64
2018-06-22T05:48:35.765Z,77.29
2018-06-22T05:51:05.534Z,76.73
2018-06-22T05:53:35.269Z,76.16
2018-06-22T05:56:04.916Z,75.65
2018-06-22T05:58:34.439Z,75.89
2018-06-22T06:01:04.544Z,75.84
2018-06-22T06:03:34.247Z,75.40
2018-06-22T06:06:03.628Z,75.12
2018-06-22T06:08:33.044Z,75.61
2018-06-22T06:11:02.416Z,75.81
2018-06-22T06:13:31.627Z,75.35
2018-06-22T06:16:01.062Z,75.28
2018-06-22T06:18:30.324Z,75.12
2018-06-22T06:20:59.569Z,73.37
2018-06-22T06:23:28.952Z,73.06
2018-06-22T06:25:58.253Z,73.21
2018-06-22T06:28:27.841Z,72.90
2018-06-22T06:30:57.234Z,72.62
2018-06-22T06:33:26.568Z,71.74
2018-06-22T06:35:55.945Z,72.10
2018-06-22T06:38:26.067Z,72.28
2018-06-22T06:40:55.361Z,72.19
2018-06-22T06:43:24.755Z,72.26
2018-06-22T06:45:54.114Z,71.24
2018-06-22T06:48:23.449Z,70.19
2018-06-22T06:50:52.902Z,70.87
2018-06-22T06:53:22.168Z,70.36
2018-06-22T06:55:51.592Z,70.29
2018-06-22T06:58:20.826Z,69.15
2018-06-22T07:00:56.391Z,68.33
2018-06-22T07:03:25.704Z,68.61
2018-06-22T07:05:54.987Z,68.71
2018-06-22T07:08:24.380Z,68.49
2018-06-22T07:10:53.806Z,67.75
2018-06-22T07:13:23.057Z,68.13
2018-06-22T07:15:52.353Z,67.84
2018-06-22T07:18:21.636Z,66.99
2018-06-22T07:20:50.873Z,67.18
2018-06-22T07:23:20.191Z,67.44
2018-06-22T07:25:49.448Z,67.09
2018-06-22T07:28:18.839Z,66.51
2018-06-22T07:30:48.529Z,66.84
2018-06-22T07:33:17.792Z,65.11
2018-06-22T07:35:47.466Z,65.39
2018-06-22T07:38:16.944Z,65.77
2018-06-22T07:40:46.263Z,65.49
2018-06-22T07:43:15.806Z,63.54
2018-06-22T07:45:45.252Z,61.93
2018-06-22T07:48:14.973Z,60.81
2018-06-22T07:50:44.582Z,60.31
2018-06-22T07:53:14.103Z,60.29
2018-06-22T07:55:43.580Z,60.28
2018-06-22T07:58:13.140Z,60.05
2018-06-22T08:00:42.764Z,60.13
2018-06-22T08:03:12.150Z,60.61
2018-06-22T08:05:41.916Z,60.88
2018-06-22T08:08:11.289Z,60.82
2018-06-22T08:10:40.911Z,60.03
2018-06-22T08:13:11.726Z,59.98
2018-06-22T08:15:41.678Z,59.45
2018-06-22T08:18:11.299Z,58.89
2018-06-22T08:20:40.800Z,58.40
2018-06-22T08:23:10.709Z,58.72
2018-06-22T08:25:40.375Z,58.86
2018-06-22T08:28:10.394Z,59.10
2018-06-22T08:30:40.585Z,59.13
2018-06-22T08:33:10.229Z,57.35
2018-06-22T08:35:41.032Z,57.57
2018-06-22T08:38:10.712Z,58.27
2018-06-22T08:40:40.500Z,57.69
2018-06-22T08:43:10.158Z,57.76
2018-06-22T08:45:40.306Z,56.29
2018-06-22T08:48:10.052Z,55.34
2018-06-22T08:50:39.722Z,55.96
2018-06-22T08:53:10.322Z,55.38
2018-06-22T08:55:40.348Z,55.38
2018-06-22T08:58:10.229Z,55.55
2018-06-22T09:00:40.396Z,55.42
2018-06-22T09:03:10.496Z,55.58
2018-06-22T09:05:40.384Z,54.79
2018-06-22T09:08:10.234Z,54.10
2018-06-22T09:10:40.380Z,54.58
2018-06-22T09:13:11.042Z,54.20
2018-06-22T09:15:40.784Z,53.44
2018-06-22T09:18:10.633Z,54.08
2018-06-22T09:20:40.251Z,52.84
2018-06-22T09:23:10.546Z,52.03
2018-06-22T09:25:40.313Z,51.60
2018-06-22T09:28:10.244Z,53.12
2018-06-22T09:30:40.442Z,52.70
2018-06-22T09:33:10.247Z,53.33
2018-06-22T09:35:40.101Z,52.17
2018-06-22T09:38:09.870Z,51.49
2018-06-22T09:40:39.407Z,51.32
2018-06-22T09:43:09.038Z,47.94
2018-06-22T09:45:38.820Z,50.21
2018-06-22T09:48:08.607Z,50.02
2018-06-22T09:50:38.696Z,49.64
2018-06-22T09:53:08.671Z,49.06
2018-06-22T09:55:38.609Z,48.66
2018-06-22T09:58:09.935Z,47.15
2018-06-22T10:00:39.997Z,46.62
2018-06-22T10:03:09.641Z,48.32
2018-06-22T10:05:39.166Z,46.66
2018-06-22T10:08:08.925Z,43.93
2018-06-22T10:10:38.521Z,40.74
2018-06-22T10:13:08.102Z,41.73
2018-06-22T10:15:37.790Z,42.38
2018-06-22T10:18:07.472Z,42.43
2018-06-22T10:20:37.138Z,43.77
2018-06-22T10:23:07.386Z,42.73
2018-06-22T10:25:37.344Z,40.15
2018-06-22T10:28:07.163Z,40.78
2018-06-22T10:30:36.915Z,41.68
2018-06-22T10:33:06.935Z,41.10
2018-06-22T10:35:36.757Z,40.01
2018-06-22T10:38:06.665Z,42.45
2018-06-22T10:40:36.487Z,43.17
2018-06-22T10:43:06.960Z,42.60
2018-06-22T10:45:36.573Z,44.27
2018-06-22T10:48:06.202Z,45.45
2018-06-22T10:50:36.235Z,46.49
2018-06-22T10:53:06.066Z,44.15
2018-06-22T10:55:35.478Z,41.76
2018-06-22T10:58:05.778Z,41.98
2018-06-22T11:00:35.368Z,43.01
2018-06-22T11:03:05.285Z,44.54
2018-06-22T11:05:35.426Z,43.49
2018-06-22T11:08:05.209Z,44.21
2018-06-22T11:10:36.150Z,45.47
2018-06-22T11:13:06.077Z,45.28
2018-06-22T11:15:36.720Z,45.10
2018-06-22T11:18:06.900Z,46.51
2018-06-22T11:20:36.642Z,44.91
2018-06-22T11:23:06.458Z,44.78
2018-06-22T11:25:36.359Z,43.96
2018-06-22T11:28:06.481Z,44.95
2018-06-22T11:30:36.574Z,45.83
2018-06-22T11:33:06.123Z,45.94
2018-06-22T11:35:36.302Z,44.82
2018-06-22T11:38:05.898Z,45.47
2018-06-22T11:40:35.638Z,46.55
2018-06-22T11:43:06.794Z,48.23
2018-06-22T11:45:36.788Z,47.48
2018-06-22T11:48:06.592Z,45.41
2018-06-22T11:50:36.231Z,42.56
2018-06-22T11:53:06.041Z,42.75
2018-06-22T11:55:36.036Z,42.25
2018-06-22T11:58:06.152Z,41.28
2018-06-22T12:00:36.150Z,40.81
2018-06-22T12:03:06.371Z,40.38
2018-06-22T12:05:36.156Z,39.78
2018-06-22T12:08:06.663Z,40.34
2018-06-22T12:10:36.288Z,40.05
2018-06-22T12:13:06.242Z,40.25
2018-06-22T12:15:36.267Z,38.92
2018-06-22T12:18:06.702Z,40.17
2018-06-22T12:20:36.513Z,42.61
2018-06-22T12:23:06.949Z,41.48
2018-06-22T12:25:37.266Z,39.76
2018-06-22T12:28:07.641Z,39.24
2018-06-22T12:30:38.175Z,41.68
2018-06-22T12:33:08.698Z,42.45
2018-06-22T12:35:38.250Z,41.56
2018-06-22T12:38:08.093Z,40.32
2018-06-22T12:40:37.830Z,40.42
2018-06-22T12:43:07.486Z,41.49
2018-06-22T12:45:37.418Z,43.30
2018-06-22T12:48:07.731Z,43.69
2018-06-22T12:50:37.609Z,42.14
2018-06-22T12:53:07.513Z,42.89
2018-06-22T12:55:37.334Z,42.96
2018-06-22T12:58:07.109Z,44.12
2018-06-22T13:00:36.789Z,45.72
2018-06-22T13:03:06.289Z,45.67
2018-06-22T13:05:36.244Z,46.57
2018-06-22T13:08:06.640Z,46.94
2018-06-22T13:10:36.095Z,48.13
2018-06-22T13:13:05.852Z,47.58
2018-06-22T13:15:36.180Z,44.96
2018-06-22T13:18:06.256Z,43.60
2018-06-22T13:20:36.407Z,43.23
2018-06-22T13:23:06.582Z,42.94
2018-06-22T13:25:36.924Z,43.14
2018-06-22T13:28:07.598Z,43.99
2018-06-22T13:30:37.630Z,43.44
2018-06-22T13:33:07.422Z,42.46
2018-06-22T13:35:37.290Z,42.07
2018-06-22T13:38:07.320Z,44.54
2018-06-22T13:40:37.361Z,44.37
2018-06-22T13:43:06.967Z,43.48
2018-06-22T13:45:36.805Z,44.17
2018-06-22T13:48:06.924Z,44.32
2018-06-22T13:50:36.774Z,46.32
2018-06-22T13:53:06.595Z,45.61
2018-06-22T13:55:36.792Z,44.71
2018-06-22T13:58:06.505Z,43.15
2018-06-22T14:00:36.838Z,43.64
2018-06-22T14:03:06.852Z,43.90
2018-06-22T14:05:41.637Z,42.94
2018-06-22T14:08:11.250Z,44.29
2018-06-22T14:10:40.713Z,46.55
2018-06-22T14:13:10.195Z,47.66
2018-06-22T14:15:39.622Z,45.88
2018-06-22T14:18:13.068Z,45.06
2018-06-22T14:20:42.727Z,47.12
2018-06-22T14:23:12.373Z,48.51
2018-06-22T14:25:42.298Z,48.73
2018-06-22T14:28:11.840Z,48.66
2018-06-22T14:30:41.449Z,49.29
2018-06-22T14:33:17.882Z,49.78
2018-06-22T14:35:50.782Z,49.21
2018-06-22T14:38:23.334Z,49.60
2018-06-22T14:40:53.345Z,49.30
2018-06-22T14:43:23.790Z,50.11
2018-06-22T14:45:53.104Z,50.10
2018-06-22T14:48:22.856Z,51.03
2018-06-22T14:50:52.157Z,52.67
2018-06-22T14:53:27.682Z,53.47
2018-06-22T14:56:03.020Z,53.00
2018-06-22T14:58:37.626Z,51.99
2018-06-22T15:01:12.757Z,51.59
2018-06-22T15:03:47.756Z,51.70
2018-06-22T15:06:22.311Z,51.73
2018-06-22T15:08:51.693Z,52.41
2018-06-22T15:11:21.188Z,53.31
2018-06-22T15:13:50.601Z,54.35
2018-06-22T15:16:20.116Z,54.69
2018-06-22T15:18:49.592Z,54.92
2018-06-22T15:21:19.060Z,55.40
2018-06-22T15:23:48.445Z,56.65
2018-06-22T15:26:17.737Z,57.14
2018-06-22T15:28:47.321Z,57.80
2018-06-22T15:31:16.824Z,58.63
2018-06-22T15:33:51.373Z,59.57
2018-06-22T15:36:25.877Z,60.18
2018-06-22T15:39:00.495Z,60.79
2018-06-22T15:41:35.021Z,61.75
2018-06-22T15:44:10.301Z,61.81
2018-06-22T15:46:45.323Z,62.64
2018-06-22T15:49:20.203Z,63.27
2018-06-22T15:51:55.185Z,63.14
2018-06-22T15:54:29.958Z,64.29
2018-06-22T15:56:59.314Z,65.34
2018-06-22T15:59:28.677Z,64.19
2018-06-22T16:02:02.137Z,65.09
2018-06-22T16:04:31.455Z,64.60
2018-06-22T16:07:01.857Z,64.55
2018-06-22T16:09:31.339Z,65.56
2018-06-22T16:12:06.196Z,65.39
2018-06-22T16:14:40.965Z,65.47
2018-06-22T16:17:15.650Z,65.37
2018-06-22T16:19:50.987Z,65.17
2018-06-22T16:22:25.815Z,64.88
2018-06-22T16:25:00.843Z,65.77
2018-06-22T16:27:31.868Z,66.70
2018-06-22T16:30:01.273Z,68.29
2018-06-22T16:32:30.590Z,69.51
2018-06-22T16:34:59.995Z,71.85
2018-06-22T16:37:29.351Z,72.59
2018-06-22T16:39:58.594Z,71.62
2018-06-22T16:42:28.033Z,70.85
2018-06-22T16:44:57.354Z,71.16
2018-06-22T16:47:26.770Z,71.79
2018-06-22T16:49:56.037Z,71.69
2018-06-22T16:52:25.713Z,70.71
2018-06-22T16:54:55.091Z,70.20
2018-06-22T16:57:24.410Z,70.40
2018-06-22T16:59:53.956Z,70.14
2018-06-22T17:02:23.271Z,69.06
2018-06-22T17:04:52.628Z,69.88
2018-06-22T17:07:27.621Z,69.85
2018-06-22T17:10:02.202Z,69.13
2018-06-22T17:12:37.750Z,68.51
2018-06-22T17:15:12.757Z,68.93
2018-06-22T17:17:47.929Z,68.24
2018-06-22T17:20:17.355Z,68.02
2018-06-22T17:22:46.759Z,67.99
2018-06-22T17:25:17.854Z,67.13
2018-06-22T17:27:47.477Z,67.27
2018-06-22T17:30:17.231Z,66.16
2018-06-22T17:32:47.289Z,66.55
2018-06-22T17:35:16.902Z,66.33
2018-06-22T17:37:46.336Z,67.03
2018-06-22T17:40:16.716Z,66.86
2018-06-22T17:42:46.776Z,67.79
2018-06-22T17:45:16.743Z,67.96
2018-06-22T17:47:46.520Z,68.56
2018-06-22T17:50:21.201Z,68.66
2018-06-22T17:52:50.581Z,69.30
2018-06-22T17:55:20.006Z,68.70
2018-06-22T17:57:49.518Z,68.06
2018-06-22T18:00:24.393Z,69.26
2018-06-22T18:02:58.872Z,68.92
2018-06-22T18:05:33.625Z,68.87
2018-06-22T18:08:03.595Z,69.91
2018-06-22T18:10:38.442Z,70.71
2018-06-22T18:13:08.247Z,71.57
2018-06-22T18:15:38.063Z,71.80
2018-06-22T18:18:07.936Z,71.49
2018-06-22T18:20:37.547Z,71.56
2018-06-22T18:23:07.324Z,72.44
2018-06-22T18:25:36.998Z,72.55
2018-06-22T18:28:07.635Z,73.14
2018-06-22T18:30:37.335Z,73.46
2018-06-22T18:33:07.275Z,73.35
2018-06-22T18:35:37.187Z,73.83
2018-06-22T18:38:06.818Z,75.04
2018-06-22T18:40:36.734Z,76.25
2018-06-22T18:43:06.937Z,77.15
2018-06-22T18:45:36.441Z,77.82
2018-06-22T18:48:06.221Z,77.27
2018-06-22T18:50:35.887Z,77.73
2018-06-22T18:53:10.980Z,77.52
2018-06-22T18:57:48.340Z,77.35
2018-06-22T19:00:23.153Z,78.30
2018-06-22T19:02:57.754Z,77.40
2018-06-22T19:05:27.387Z,77.69
2018-06-22T19:07:56.850Z,77.00
2018-06-22T19:10:26.337Z,77.09
2018-06-22T19:12:55.764Z,76.82
2018-06-22T19:15:25.177Z,77.37
2018-06-22T19:17:54.612Z,77.40
2018-06-22T19:20:24.211Z,77.43
2018-06-22T19:22:53.668Z,77.47
2018-06-22T19:25:23.041Z,77.43
2018-06-22T19:27:52.394Z,77.48
2018-06-22T19:30:21.882Z,77.78
2018-06-22T19:32:51.139Z,77.72
2018-06-22T19:35:21.068Z,77.14
2018-06-22T19:37:50.380Z,77.47
2018-06-22T19:40:19.839Z,77.48
2018-06-22T19:42:50.369Z,77.29
2018-06-22T19:45:25.118Z,77.79
2018-06-22T19:47:59.984Z,77.41
2018-06-22T19:50:34.380Z,76.97
2018-06-22T19:53:08.959Z,76.38
2018-06-22T19:55:39.061Z,76.15
2018-06-22T19:58:08.669Z,75.54
2018-06-22T20:00:38.262Z,75.36
2018-06-22T20:03:07.886Z,74.83
2018-06-22T20:05:37.784Z,74.79
2018-06-22T20:08:07.449Z,75.10
2018-06-22T20:10:37.198Z,74.80
2018-06-22T20:13:06.624Z,74.29
2018-06-22T20:15:36.466Z,73.89
2018-06-22T20:18:06.974Z,73.25
2018-06-22T20:20:36.474Z,72.90
2018-06-22T20:23:07.372Z,73.30
2018-06-22T20:25:42.127Z,73.39
2018-06-22T20:28:12.013Z,72.85
2018-06-22T20:30:41.386Z,72.23
2018-06-22T20:33:11.019Z,72.85
2018-06-22T20:35:45.996Z,72.54
2018-06-22T20:38:20.955Z,71.93
2018-06-22T20:40:55.745Z,72.02
2018-06-22T20:43:30.472Z,72.46
2018-06-22T20:46:00.185Z,71.62
2018-06-22T20:48:34.814Z,72.45
2018-06-22T20:51:04.352Z,71.94
2018-06-22T20:53:33.756Z,72.08
2018-06-22T20:56:03.215Z,72.15
2018-06-22T20:58:33.595Z,71.74
2018-06-22T21:01:03.021Z,71.16
2018-06-22T21:03:32.518Z,71.28
2018-06-22T21:06:01.935Z,71.33
2018-06-22T21:08:31.451Z,71.45
2018-06-22T21:11:00.743Z,71.23
2018-06-22T21:13:30.059Z,70.87
2018-06-22T21:15:59.527Z,71.64
2018-06-22T21:18:28.762Z,71.44
2018-06-22T21:21:03.997Z,71.30
2018-06-22T21:23:33.445Z,71.00
2018-06-22T21:26:02.748Z,71.25
2018-06-22T21:28:37.371Z,71.34
2018-06-22T21:31:13.425Z,71.58
2018-06-22T21:33:48.650Z,71.13
2018-06-22T21:36:23.224Z,71.46
2018-06-22T21:38:55.940Z,71.41
2018-06-22T21:41:25.262Z,71.76
2018-06-22T21:43:54.832Z,71.28
2018-06-22T21:46:24.522Z,71.37
2018-06-22T21:48:53.866Z,72.02
2018-06-22T21:51:23.438Z,72.47
2018-06-22T21:53:52.834Z,72.11
2018-06-22T21:56:24.862Z,71.99
2018-06-22T21:58:54.296Z,72.37
2018-06-22T22:01:23.660Z,72.91
2018-06-22T22:03:52.972Z,72.81
2018-06-22T22:06:22.418Z,72.16
2018-06-22T22:08:51.721Z,73.02
2018-06-22T22:11:21.216Z,72.76
2018-06-22T22:13:50.813Z,72.72
2018-06-22T22:16:20.155Z,73.28
2018-06-22T22:18:49.526Z,72.80
2018-06-22T22:21:20.952Z,73.16
2018-06-22T22:23:50.503Z,73.26
2018-06-22T22:26:20.654Z,73.35
2018-06-22T22:28:49.994Z,73.16
2018-06-22T22:31:19.421Z,73.05
2018-06-22T22:33:48.832Z,72.91
2018-06-22T22:36:18.198Z,73.40
2018-06-22T22:38:47.805Z,73.07
2018-06-22T22:41:17.103Z,72.69
2018-06-22T22:43:46.484Z,73.47
2018-06-22T22:46:15.885Z,72.79
2018-06-22T22:48:45.637Z,72.94
2018-06-22T22:51:16.524Z,72.72
2018-06-22T22:53:46.229Z,73.07
2018-06-22T22:56:15.842Z,73.18
2018-06-22T22:58:45.665Z,72.44
2018-06-22T23:01:15.372Z,73.31
2018-06-22T23:03:45.073Z,72.71
2018-06-22T23:06:14.768Z,72.79
2018-06-22T23:08:44.197Z,72.93
2018-06-22T23:11:13.688Z,72.80
2018-06-22T23:13:43.358Z,73.67
2018-06-22T23:16:13.009Z,73.44
2018-06-22T23:18:43.013Z,73.79
2018-06-22T23:21:12.556Z,73.99
2018-06-22T23:23:42.478Z,73.47
2018-06-22T23:26:12.017Z,73.77
2018-06-22T23:28:41.969Z,73.61
2018-06-22T23:31:11.711Z,73.93
2018-06-22T23:33:41.289Z,73.79
2018-06-22T23:36:10.780Z,74.64
2018-06-22T23:38:40.426Z,74.43
2018-06-22T23:41:10.099Z,74.83
2018-06-22T23:43:40.319Z,74.73
2018-06-22T23:46:09.808Z,74.82
2018-06-22T23:48:39.536Z,74.76
2018-06-22T23:51:09.075Z,74.76
2018-06-22T23:53:38.681Z,74.83
2018-06-22T23:56:08.411Z,75.23
2018-06-22T23:58:37.992Z,75.00
